createdAt,value
2022-09-15T00:00:29.829Z,14.79
2022-09-15T00:01:01.971Z,14.81
2022-09-15T00:01:33.321Z,14.80
2022-09-15T00:02:04.900Z,14.80
2022-09-15T00:02:36.281Z,14.79
2022-09-15T00:03:07.730Z,14.80
2022-09-15T00:03:40.245Z,14.78
2022-09-15T00:04:11.722Z,14.77
2022-09-15T00:04:43.028Z,14.76
2022-09-15T00:05:14.618Z,14.77
2022-09-15T00:05:46.397Z,14.76
2022-09-15T00:06:18.176Z,14.74
2022-09-15T00:06:49.501Z,14.72
2022-09-15T00:07:20.823Z,14.73
2022-09-15T00:07:52.113Z,14.73
2022-09-15T00:08:24.167Z,14.72
2022-09-15T00:08:56.439Z,14.72
2022-09-15T00:09:27.748Z,14.71
2022-09-15T00:09:59.124Z,14.71
2022-09-15T00:10:30.823Z,14.70
2022-09-15T00:11:14.880Z,14.70
2022-09-15T00:11:46.276Z,14.70
2022-09-15T00:12:17.764Z,14.68
2022-09-15T00:12:49.070Z,14.67
2022-09-15T00:13:21.621Z,14.66
2022-09-15T00:13:53.735Z,14.65
2022-09-15T00:14:25.143Z,14.65
2022-09-15T00:14:56.535Z,14.64
2022-09-15T00:15:27.853Z,14.63
2022-09-15T00:15:59.187Z,14.63
2022-09-15T00:16:32.238Z,14.63
2022-09-15T00:17:03.683Z,14.63
2022-09-15T00:17:35.101Z,14.62
2022-09-15T00:18:07.079Z,14.62
2022-09-15T00:18:39.743Z,14.62
2022-09-15T00:19:11.117Z,14.62
2022-09-15T00:19:42.405Z,14.61
2022-09-15T00:20:13.908Z,14.61
2022-09-15T00:20:45.979Z,14.60
2022-09-15T00:21:21.151Z,14.60
2022-09-15T00:21:52.489Z,14.58
2022-09-15T00:22:24.116Z,14.58
2022-09-15T00:22:55.444Z,14.56
2022-09-15T00:23:26.802Z,14.56
2022-09-15T00:23:59.590Z,14.56
2022-09-15T00:24:30.975Z,14.55
2022-09-15T00:25:02.340Z,14.52
2022-09-15T00:25:33.862Z,14.52
2022-09-15T00:26:10.885Z,14.55
2022-09-15T00:26:42.233Z,14.52
2022-09-15T00:27:13.534Z,14.51
2022-09-15T00:27:44.811Z,14.50
2022-09-15T00:28:18.576Z,14.51
2022-09-15T00:28:50.439Z,14.50
2022-09-15T00:29:21.875Z,14.49
2022-09-15T00:29:53.253Z,14.48
2022-09-15T00:30:24.609Z,14.48
2022-09-15T00:30:56.012Z,14.47
2022-09-15T00:31:28.766Z,14.48
2022-09-15T00:32:00.061Z,14.47
2022-09-15T00:32:31.938Z,14.46
2022-09-15T00:33:03.388Z,14.43
2022-09-15T00:33:35.214Z,14.45
2022-09-15T00:34:07.085Z,14.45
2022-09-15T00:34:38.359Z,14.43
2022-09-15T00:35:09.712Z,14.45
2022-09-15T00:35:42.557Z,14.45
2022-09-15T00:36:15.140Z,14.44
2022-09-15T00:36:46.471Z,14.44
2022-09-15T00:37:18.076Z,14.43
2022-09-15T00:37:49.357Z,14.44
2022-09-15T00:38:20.695Z,14.42
2022-09-15T00:38:53.079Z,14.42
2022-09-15T00:39:25.227Z,14.40
2022-09-15T00:39:56.663Z,14.41
2022-09-15T00:40:28.068Z,14.41
2022-09-15T00:41:00.547Z,14.42
2022-09-15T00:41:32.161Z,14.41
2022-09-15T00:42:04.031Z,14.41
2022-09-15T00:42:35.335Z,14.40
2022-09-15T00:43:09.976Z,14.40
2022-09-15T00:43:50.155Z,14.40
2022-09-15T00:44:21.896Z,14.41
2022-09-15T00:44:54.966Z,14.41
2022-09-15T00:45:27.177Z,14.41
2022-09-15T00:45:58.538Z,14.41
2022-09-15T00:46:36.543Z,14.41
2022-09-15T00:47:19.203Z,14.41
2022-09-15T00:47:51.921Z,14.39
2022-09-15T00:48:23.321Z,14.40
2022-09-15T00:49:20.016Z,14.40
2022-09-15T00:49:58.991Z,14.39
2022-09-15T00:50:32.610Z,14.39
2022-09-15T00:51:05.988Z,14.38
2022-09-15T00:51:49.675Z,14.38
2022-09-15T00:52:29.223Z,14.37
2022-09-15T00:53:04.469Z,14.36
2022-09-15T00:53:37.111Z,14.36
2022-09-15T00:54:17.596Z,14.37
2022-09-15T00:54:56.255Z,14.35
2022-09-15T00:55:39.166Z,14.36
2022-09-15T00:56:12.375Z,14.34
2022-09-15T00:56:45.549Z,14.35
2022-09-15T00:57:22.731Z,14.33
2022-09-15T00:58:00.561Z,14.34
2022-09-15T00:58:41.762Z,14.34
2022-09-15T00:59:18.020Z,14.35
2022-09-15T00:59:50.881Z,14.34
2022-09-15T01:00:27.411Z,14.34
2022-09-15T01:01:01.262Z,14.34
2022-09-15T01:01:33.029Z,14.33
2022-09-15T01:02:12.031Z,14.34
2022-09-15T01:02:45.744Z,14.31
2022-09-15T01:03:17.842Z,14.32
2022-09-15T01:03:49.284Z,14.32
2022-09-15T01:04:20.777Z,14.32
2022-09-15T01:04:58.173Z,14.33
2022-09-15T01:05:51.405Z,14.32
2022-09-15T01:06:41.197Z,14.31
2022-09-15T01:07:16.994Z,14.30
2022-09-15T01:08:01.824Z,14.30
2022-09-15T01:08:42.401Z,14.29
2022-09-15T01:09:19.269Z,14.28
2022-09-15T01:09:54.331Z,14.27
2022-09-15T01:10:32.088Z,14.26
2022-09-15T01:11:03.642Z,14.26
2022-09-15T01:11:35.635Z,14.25
2022-09-15T01:12:07.597Z,14.26
2022-09-15T01:12:40.914Z,14.26
2022-09-15T01:13:14.292Z,14.24
2022-09-15T01:13:45.720Z,14.25
2022-09-15T01:14:17.058Z,14.21
2022-09-15T01:14:48.372Z,14.21
2022-09-15T01:15:24.566Z,14.18
2022-09-15T01:16:00.295Z,14.17
2022-09-15T01:17:04.330Z,14.17
2022-09-15T01:17:54.724Z,14.15
2022-09-15T01:18:45.834Z,14.11
2022-09-15T01:20:07.636Z,14.08
2022-09-15T01:21:01.996Z,14.06
2022-09-15T01:21:45.479Z,14.04
2022-09-15T01:22:36.823Z,14.01
2022-09-15T01:23:45.432Z,14.00
2022-09-15T01:24:31.896Z,13.99
2022-09-15T01:25:14.929Z,13.98
2022-09-15T01:26:33.594Z,13.98
2022-09-15T01:27:41.581Z,13.96
2022-09-15T01:28:22.725Z,13.94
2022-09-15T01:29:24.813Z,13.92
2022-09-15T01:30:14.049Z,13.91
2022-09-15T01:31:14.210Z,13.90
2022-09-15T01:32:17.576Z,13.90
2022-09-15T01:33:05.066Z,13.90
2022-09-15T01:33:53.281Z,13.90
2022-09-15T01:34:27.352Z,13.88
2022-09-15T01:35:17.104Z,13.87
2022-09-15T01:36:12.870Z,13.87
2022-09-15T01:36:53.783Z,13.87
2022-09-15T01:37:30.775Z,13.85
2022-09-15T01:38:27.859Z,13.86
2022-09-15T01:39:08.509Z,13.87
2022-09-15T01:39:44.750Z,13.86
2022-09-15T01:40:19.299Z,13.86
2022-09-15T01:41:03.180Z,13.87
2022-09-15T01:41:42.954Z,13.85
2022-09-15T01:42:16.454Z,13.86
2022-09-15T01:42:50.977Z,13.86
2022-09-15T01:43:25.125Z,13.86
2022-09-15T01:44:09.445Z,13.84
2022-09-15T01:44:56.646Z,13.83
2022-09-15T01:45:32.496Z,13.81
2022-09-15T01:46:04.833Z,13.81
2022-09-15T01:46:40.936Z,13.80
2022-09-15T01:47:17.549Z,13.79
2022-09-15T01:47:52.343Z,13.80
2022-09-15T01:48:27.283Z,13.80
2022-09-15T01:49:01.619Z,13.80
2022-09-15T01:49:48.493Z,13.81
2022-09-15T01:50:28.660Z,13.79
2022-09-15T01:51:03.295Z,13.78
2022-09-15T01:51:36.682Z,13.80
2022-09-15T01:52:08.456Z,13.78
2022-09-15T01:52:44.583Z,13.80
2022-09-15T01:53:18.840Z,13.82
2022-09-15T01:53:52.755Z,13.81
2022-09-15T01:54:32.898Z,13.82
2022-09-15T01:55:11.889Z,13.83
2022-09-15T01:55:49.981Z,13.84
2022-09-15T01:56:21.507Z,13.84
2022-09-15T01:56:52.878Z,13.82
2022-09-15T01:57:24.778Z,13.85
2022-09-15T01:57:58.010Z,13.85
2022-09-15T01:58:29.512Z,13.83
2022-09-15T01:59:00.905Z,13.84
2022-09-15T01:59:33.965Z,13.85
2022-09-15T02:00:05.873Z,13.84
2022-09-15T02:00:42.651Z,13.84
2022-09-15T02:01:21.113Z,13.83
2022-09-15T02:02:01.603Z,13.83
2022-09-15T02:02:36.593Z,13.83
2022-09-15T02:03:17.167Z,13.82
2022-09-15T02:04:21.576Z,13.82
2022-09-15T02:04:58.030Z,13.79
2022-09-15T02:05:35.845Z,13.79
2022-09-15T02:06:18.280Z,13.78
2022-09-15T02:07:23.774Z,13.77
2022-09-15T02:08:05.054Z,13.76
2022-09-15T02:08:58.490Z,13.75
2022-09-15T02:09:35.029Z,13.75
2022-09-15T02:10:24.384Z,13.73
2022-09-15T02:11:02.514Z,13.74
2022-09-15T02:11:36.145Z,13.74
2022-09-15T02:12:29.046Z,13.73
2022-09-15T02:13:16.827Z,13.73
2022-09-15T02:14:03.344Z,13.71
2022-09-15T02:14:57.720Z,13.70
2022-09-15T02:15:42.204Z,13.69
2022-09-15T02:16:20.475Z,13.69
2022-09-15T02:16:54.365Z,13.69
2022-09-15T02:17:29.312Z,13.69
2022-09-15T02:18:03.493Z,13.70
2022-09-15T02:18:39.520Z,13.69
2022-09-15T02:19:21.607Z,13.70
2022-09-15T02:19:57.963Z,13.71
2022-09-15T02:20:51.301Z,13.71
2022-09-15T02:21:44.744Z,13.70
2022-09-15T02:22:23.503Z,13.70
2022-09-15T02:23:00.809Z,13.69
2022-09-15T02:23:37.794Z,13.69
2022-09-15T02:24:18.567Z,13.69
2022-09-15T02:25:13.126Z,13.70
2022-09-15T02:25:51.525Z,13.69
2022-09-15T02:26:27.714Z,13.70
2022-09-15T02:27:01.680Z,13.70
2022-09-15T02:27:38.845Z,13.71
2022-09-15T02:28:13.956Z,13.71
2022-09-15T02:28:49.133Z,13.70
2022-09-15T02:29:22.606Z,13.71
2022-09-15T02:29:58.900Z,13.72
2022-09-15T02:30:32.633Z,13.71
2022-09-15T02:31:08.489Z,13.72
2022-09-15T02:31:42.120Z,13.73
2022-09-15T02:32:18.030Z,13.73
2022-09-15T02:32:56.819Z,13.73
2022-09-15T02:33:34.948Z,13.74
2022-09-15T02:34:13.040Z,13.75
2022-09-15T02:34:50.584Z,13.75
2022-09-15T02:35:23.855Z,13.76
2022-09-15T02:35:55.610Z,13.76
2022-09-15T02:36:29.314Z,13.77
2022-09-15T02:37:02.084Z,13.76
2022-09-15T02:37:36.321Z,13.78
2022-09-15T02:38:09.317Z,13.78
2022-09-15T02:38:49.121Z,13.77
2022-09-15T02:39:26.410Z,13.79
2022-09-15T02:39:59.952Z,13.80
2022-09-15T02:40:32.251Z,13.80
2022-09-15T02:41:03.762Z,13.81
2022-09-15T02:41:36.967Z,13.80
2022-09-15T02:42:09.309Z,13.81
2022-09-15T02:42:42.379Z,13.80
2022-09-15T02:43:18.083Z,13.82
2022-09-15T02:43:50.020Z,13.83
2022-09-15T02:44:22.003Z,13.84
2022-09-15T02:44:53.962Z,13.85
2022-09-15T02:45:26.791Z,13.86
2022-09-15T02:45:58.453Z,13.83
2022-09-15T02:46:30.190Z,13.87
2022-09-15T02:47:02.237Z,13.87
2022-09-15T02:47:33.524Z,13.86
2022-09-15T02:48:05.201Z,13.88
2022-09-15T02:48:36.693Z,13.88
2022-09-15T02:49:07.997Z,13.87
2022-09-15T02:49:39.276Z,13.88
2022-09-15T02:50:10.573Z,13.87
2022-09-15T02:50:41.907Z,13.87
2022-09-15T02:51:14.439Z,13.87
2022-09-15T02:51:45.814Z,13.88
2022-09-15T02:52:17.399Z,13.88
2022-09-15T02:52:48.688Z,13.88
2022-09-15T02:53:19.961Z,13.87
2022-09-15T02:53:51.551Z,13.89
2022-09-15T02:54:22.843Z,13.89
2022-09-15T02:54:54.456Z,13.89
2022-09-15T02:55:28.884Z,13.89
2022-09-15T02:56:00.172Z,13.88
2022-09-15T02:56:31.614Z,13.88
2022-09-15T02:57:02.903Z,13.89
2022-09-15T02:57:34.280Z,13.86
2022-09-15T02:58:05.639Z,13.88
2022-09-15T02:58:36.988Z,13.89
2022-09-15T02:59:08.320Z,13.89
2022-09-15T02:59:58.488Z,13.89
2022-09-15T03:00:30.892Z,13.90
2022-09-15T03:01:07.329Z,13.87
2022-09-15T03:01:40.699Z,13.88
2022-09-15T03:02:12.572Z,13.88
2022-09-15T03:02:46.767Z,13.87
2022-09-15T03:03:18.886Z,13.87
2022-09-15T03:03:50.189Z,13.88
2022-09-15T03:04:21.504Z,13.89
2022-09-15T03:05:27.992Z,13.88
2022-09-15T03:06:16.240Z,13.90
2022-09-15T03:06:47.727Z,13.89
2022-09-15T03:07:19.408Z,13.89
2022-09-15T03:07:51.707Z,13.90
2022-09-15T03:08:22.997Z,13.89
2022-09-15T03:09:01.265Z,13.88
2022-09-15T03:09:32.623Z,13.88
2022-09-15T03:10:08.550Z,13.88
2022-09-15T03:10:39.870Z,13.89
2022-09-15T03:11:12.085Z,13.89
2022-09-15T03:11:43.449Z,13.90
2022-09-15T03:12:14.932Z,13.91
2022-09-15T03:12:51.728Z,13.90
2022-09-15T03:13:23.203Z,13.90
2022-09-15T03:13:57.050Z,13.90
2022-09-15T03:14:29.380Z,13.90
2022-09-15T03:15:00.676Z,13.89
2022-09-15T03:15:33.252Z,13.90
2022-09-15T03:16:10.072Z,13.90
2022-09-15T03:16:41.507Z,13.88
2022-09-15T03:17:13.254Z,13.90
2022-09-15T03:17:46.855Z,13.88
2022-09-15T03:18:18.160Z,13.89
2022-09-15T03:18:49.552Z,13.89
2022-09-15T03:19:20.823Z,13.91
2022-09-15T03:19:52.119Z,13.89
2022-09-15T03:20:28.025Z,13.91
2022-09-15T03:20:59.571Z,13.91
2022-09-15T03:21:30.932Z,13.90
2022-09-15T03:22:02.216Z,13.92
2022-09-15T03:22:33.584Z,13.92
2022-09-15T03:23:04.883Z,13.92
2022-09-15T03:23:36.704Z,13.92
2022-09-15T03:24:08.120Z,13.93
2022-09-15T03:24:39.480Z,13.92
2022-09-15T03:25:11.195Z,13.91
2022-09-15T03:25:45.470Z,13.92
2022-09-15T03:26:17.016Z,13.93
2022-09-15T03:26:49.160Z,13.93
2022-09-15T03:27:20.462Z,13.93
2022-09-15T03:27:51.755Z,13.92
2022-09-15T03:28:23.032Z,13.93
2022-09-15T03:28:54.553Z,13.92
2022-09-15T03:29:27.065Z,13.93
2022-09-15T03:29:58.801Z,13.94
2022-09-15T03:30:30.147Z,13.91
2022-09-15T03:31:02.085Z,13.95
2022-09-15T03:31:33.498Z,13.93
2022-09-15T03:32:04.985Z,13.95
2022-09-15T03:32:36.491Z,13.95
2022-09-15T03:33:07.825Z,13.94
2022-09-15T03:33:40.184Z,13.95
2022-09-15T03:34:11.600Z,13.95
2022-09-15T03:34:42.908Z,13.94
2022-09-15T03:35:14.526Z,13.94
2022-09-15T03:35:50.304Z,13.94
2022-09-15T03:36:21.756Z,13.94
2022-09-15T03:36:53.047Z,13.95
2022-09-15T03:37:24.451Z,13.94
2022-09-15T03:37:55.924Z,13.95
2022-09-15T03:38:27.330Z,13.96
2022-09-15T03:38:58.851Z,13.95
2022-09-15T03:39:30.260Z,13.95
2022-09-15T03:40:03.881Z,13.95
2022-09-15T03:40:36.029Z,13.96
2022-09-15T03:41:11.223Z,13.96
2022-09-15T03:41:42.571Z,13.96
2022-09-15T03:42:14.107Z,13.97
2022-09-15T03:42:45.419Z,13.97
2022-09-15T03:43:18.706Z,13.95
2022-09-15T03:43:50.220Z,13.95
2022-09-15T03:44:21.677Z,13.96
2022-09-15T03:44:53.171Z,13.94
2022-09-15T03:45:24.498Z,13.95
2022-09-15T03:45:56.867Z,13.95
2022-09-15T03:46:28.593Z,13.94
2022-09-15T03:47:00.288Z,13.94
2022-09-15T03:47:32.619Z,13.95
2022-09-15T03:48:05.480Z,13.94
2022-09-15T03:48:37.644Z,13.94
2022-09-15T03:49:09.180Z,13.94
2022-09-15T03:49:40.507Z,13.93
2022-09-15T03:50:11.937Z,13.95
2022-09-15T03:50:43.251Z,13.94
2022-09-15T03:51:14.844Z,13.94
2022-09-15T03:51:46.165Z,13.92
2022-09-15T03:52:17.531Z,13.95
2022-09-15T03:52:48.844Z,13.94
2022-09-15T03:53:20.445Z,13.95
2022-09-15T03:53:51.771Z,13.95
2022-09-15T03:54:23.097Z,13.97
2022-09-15T03:54:55.580Z,13.97
2022-09-15T03:55:27.511Z,13.98
2022-09-15T03:56:13.567Z,13.98
2022-09-15T03:56:47.266Z,13.98
2022-09-15T03:57:18.579Z,13.97
2022-09-15T03:57:49.865Z,13.96
2022-09-15T03:58:21.325Z,13.97
2022-09-15T03:58:53.358Z,13.98
2022-09-15T03:59:24.883Z,13.98
2022-09-15T03:59:56.193Z,13.98
2022-09-15T04:00:27.800Z,13.98
2022-09-15T04:00:59.200Z,13.98
2022-09-15T04:01:30.877Z,13.99
2022-09-15T04:02:02.490Z,13.99
2022-09-15T04:02:34.231Z,13.99
2022-09-15T04:03:06.860Z,13.98
2022-09-15T04:03:44.108Z,13.98
2022-09-15T04:04:16.215Z,13.99
2022-09-15T04:04:47.500Z,13.98
2022-09-15T04:05:18.783Z,13.97
2022-09-15T04:05:50.120Z,13.97
2022-09-15T04:06:22.680Z,13.99
2022-09-15T04:06:54.183Z,13.97
2022-09-15T04:07:25.667Z,13.98
2022-09-15T04:07:57.017Z,13.97
2022-09-15T04:08:28.336Z,13.96
2022-09-15T04:09:02.332Z,13.97
2022-09-15T04:09:33.729Z,13.97
2022-09-15T04:10:05.844Z,13.96
2022-09-15T04:10:38.544Z,13.95
2022-09-15T04:11:12.027Z,13.96
2022-09-15T04:11:43.407Z,13.96
2022-09-15T04:12:14.696Z,13.97
2022-09-15T04:12:46.081Z,13.97
2022-09-15T04:13:17.418Z,13.96
2022-09-15T04:13:48.832Z,13.97
2022-09-15T04:14:20.112Z,13.99
2022-09-15T04:14:51.408Z,13.99
2022-09-15T04:15:22.825Z,14.00
2022-09-15T04:16:02.886Z,13.99
2022-09-15T04:16:34.286Z,14.01
2022-09-15T04:17:05.783Z,14.00
2022-09-15T04:17:37.300Z,14.00
2022-09-15T04:18:08.707Z,14.00
2022-09-15T04:18:40.740Z,13.98
2022-09-15T04:19:12.281Z,14.00
2022-09-15T04:19:43.648Z,13.99
2022-09-15T04:20:17.106Z,14.00
2022-09-15T04:20:48.387Z,14.00
2022-09-15T04:21:22.981Z,14.02
2022-09-15T04:21:54.319Z,14.01
2022-09-15T04:22:26.015Z,14.02
2022-09-15T04:22:58.454Z,14.02
2022-09-15T04:23:29.891Z,14.01
2022-09-15T04:24:01.465Z,14.03
2022-09-15T04:24:32.759Z,14.03
2022-09-15T04:25:04.603Z,14.03
2022-09-15T04:25:35.947Z,14.04
2022-09-15T04:26:11.728Z,14.04
2022-09-15T04:26:43.111Z,14.04
2022-09-15T04:27:15.282Z,14.04
2022-09-15T04:27:46.641Z,14.05
2022-09-15T04:28:18.050Z,14.04
2022-09-15T04:28:49.529Z,14.04
2022-09-15T04:29:20.903Z,14.03
2022-09-15T04:29:52.529Z,14.02
2022-09-15T04:30:24.206Z,14.02
2022-09-15T04:31:12.819Z,14.03
2022-09-15T04:31:44.485Z,14.02
2022-09-15T04:32:16.016Z,14.02
2022-09-15T04:32:47.401Z,14.01
2022-09-15T04:33:18.953Z,14.02
2022-09-15T04:33:53.198Z,14.02
2022-09-15T04:34:25.003Z,14.02
2022-09-15T04:34:56.301Z,14.02
2022-09-15T04:35:28.126Z,14.00
2022-09-15T04:36:06.320Z,14.03
2022-09-15T04:36:38.032Z,14.03
2022-09-15T04:37:10.265Z,14.02
2022-09-15T04:37:41.689Z,14.03
2022-09-15T04:38:13.228Z,14.02
2022-09-15T04:38:45.392Z,14.02
2022-09-15T04:39:16.710Z,14.04
2022-09-15T04:39:49.132Z,14.04
2022-09-15T04:40:20.521Z,14.01
2022-09-15T04:40:52.524Z,14.04
2022-09-15T04:41:26.823Z,14.03
2022-09-15T04:41:58.200Z,14.04
2022-09-15T04:42:30.966Z,14.05
2022-09-15T04:43:02.285Z,14.04
2022-09-15T04:43:33.984Z,14.03
2022-09-15T04:44:05.324Z,14.05
2022-09-15T04:44:36.666Z,14.04
2022-09-15T04:45:08.527Z,14.04
2022-09-15T04:45:40.020Z,14.04
2022-09-15T04:46:13.017Z,14.04
2022-09-15T04:46:44.410Z,14.04
2022-09-15T04:47:15.792Z,14.02
2022-09-15T04:47:48.556Z,14.05
2022-09-15T04:48:20.062Z,14.06
2022-09-15T04:48:51.824Z,14.06
2022-09-15T04:49:23.153Z,14.07
2022-09-15T04:49:54.435Z,14.05
2022-09-15T04:50:25.795Z,14.07
2022-09-15T04:51:05.604Z,14.04
2022-09-15T04:51:37.967Z,14.05
2022-09-15T04:52:09.799Z,14.05
2022-09-15T04:52:41.488Z,14.06
2022-09-15T04:53:13.331Z,14.05
2022-09-15T04:53:45.626Z,14.04
2022-09-15T04:54:17.012Z,14.05
2022-09-15T04:54:48.344Z,14.05
2022-09-15T04:55:19.662Z,14.05
2022-09-15T04:55:50.964Z,14.06
2022-09-15T04:56:24.522Z,14.06
2022-09-15T04:56:55.815Z,14.03
2022-09-15T04:57:27.128Z,14.06
2022-09-15T04:57:58.444Z,14.05
2022-09-15T04:58:29.743Z,14.05
2022-09-15T04:59:03.905Z,14.05
2022-09-15T04:59:35.643Z,14.05
2022-09-15T05:00:07.675Z,14.06
2022-09-15T05:00:44.302Z,14.06
2022-09-15T05:01:21.815Z,14.06
2022-09-15T05:01:56.352Z,14.05
2022-09-15T05:02:27.953Z,14.05
2022-09-15T05:03:00.244Z,14.06
2022-09-15T05:03:31.577Z,14.05
2022-09-15T05:04:03.938Z,14.04
2022-09-15T05:04:35.292Z,14.04
2022-09-15T05:05:06.848Z,14.05
2022-09-15T05:05:39.183Z,14.05
2022-09-15T05:06:13.005Z,14.04
2022-09-15T05:06:44.317Z,14.04
2022-09-15T05:07:15.636Z,14.05
2022-09-15T05:07:47.619Z,14.04
2022-09-15T05:08:19.447Z,14.03
2022-09-15T05:08:52.678Z,14.03
2022-09-15T05:09:24.339Z,14.04
2022-09-15T05:09:55.667Z,14.04
2022-09-15T05:10:27.131Z,14.02
2022-09-15T05:11:00.088Z,14.04
2022-09-15T05:11:32.771Z,14.02
2022-09-15T05:12:04.270Z,14.04
2022-09-15T05:12:35.819Z,14.05
2022-09-15T05:13:07.112Z,14.04
2022-09-15T05:13:39.909Z,14.05
2022-09-15T05:14:11.638Z,14.05
2022-09-15T05:14:42.926Z,14.05
2022-09-15T05:15:14.214Z,14.04
2022-09-15T05:15:45.705Z,14.02
2022-09-15T05:16:35.140Z,14.03
2022-09-15T05:17:06.464Z,14.04
2022-09-15T05:17:38.176Z,14.03
2022-09-15T05:18:09.471Z,14.03
2022-09-15T05:18:42.255Z,14.04
2022-09-15T05:19:13.568Z,14.04
2022-09-15T05:19:44.903Z,14.04
2022-09-15T05:20:17.504Z,14.03
2022-09-15T05:20:48.790Z,14.03
2022-09-15T05:21:22.131Z,14.05
2022-09-15T05:21:53.489Z,14.04
2022-09-15T05:22:26.075Z,14.05
2022-09-15T05:22:57.369Z,14.06
2022-09-15T05:23:29.257Z,14.05
2022-09-15T05:24:00.770Z,14.05
2022-09-15T05:24:32.079Z,14.06
2022-09-15T05:25:04.289Z,14.06
2022-09-15T05:25:35.564Z,14.04
2022-09-15T05:26:09.576Z,14.05
2022-09-15T05:26:41.545Z,14.05
2022-09-15T05:27:12.889Z,14.05
2022-09-15T05:27:44.334Z,14.03
2022-09-15T05:28:15.751Z,14.03
2022-09-15T05:28:47.334Z,14.05
2022-09-15T05:29:19.366Z,14.03
2022-09-15T05:30:04.327Z,14.01
2022-09-15T05:30:44.349Z,14.00
2022-09-15T05:31:24.040Z,14.01
2022-09-15T05:31:55.484Z,14.02
2022-09-15T05:32:26.911Z,14.02
2022-09-15T05:32:58.405Z,14.02
2022-09-15T05:33:29.703Z,14.02
2022-09-15T05:34:03.749Z,14.00
2022-09-15T05:34:35.737Z,14.00
2022-09-15T05:35:07.215Z,14.01
2022-09-15T05:35:39.016Z,14.00
2022-09-15T05:36:10.702Z,14.00
2022-09-15T05:36:41.985Z,13.99
2022-09-15T05:37:14.129Z,13.99
2022-09-15T05:37:45.540Z,14.00
2022-09-15T05:38:16.971Z,14.00
2022-09-15T05:38:48.427Z,14.01
2022-09-15T05:39:19.721Z,13.99
2022-09-15T05:39:51.121Z,13.99
2022-09-15T05:40:22.629Z,14.00
2022-09-15T05:40:54.055Z,14.00
2022-09-15T05:41:27.259Z,14.01
2022-09-15T05:41:59.639Z,14.00
2022-09-15T05:42:31.933Z,14.01
2022-09-15T05:43:03.232Z,13.99
2022-09-15T05:43:36.032Z,13.99
2022-09-15T05:44:07.313Z,13.97
2022-09-15T05:44:38.669Z,13.96
2022-09-15T05:45:10.747Z,13.97
2022-09-15T05:45:44.982Z,13.98
2022-09-15T05:46:18.505Z,13.97
2022-09-15T05:46:49.938Z,13.98
2022-09-15T05:47:21.256Z,13.96
2022-09-15T05:47:52.554Z,13.96
2022-09-15T05:48:24.509Z,13.94
2022-09-15T05:48:57.998Z,13.96
2022-09-15T05:49:30.512Z,13.95
2022-09-15T05:50:01.820Z,13.94
2022-09-15T05:50:33.115Z,13.94
2022-09-15T05:51:05.054Z,13.96
2022-09-15T05:51:36.355Z,13.97
2022-09-15T05:52:07.656Z,13.98
2022-09-15T05:52:38.970Z,13.96
2022-09-15T05:53:10.268Z,13.96
2022-09-15T05:53:41.811Z,13.98
2022-09-15T05:54:13.827Z,13.99
2022-09-15T05:54:45.413Z,13.99
2022-09-15T05:55:16.721Z,14.00
2022-09-15T05:55:48.017Z,14.00
2022-09-15T05:56:20.015Z,14.02
2022-09-15T05:56:51.378Z,14.02
2022-09-15T05:57:22.709Z,14.01
2022-09-15T05:57:54.364Z,14.03
2022-09-15T05:58:26.563Z,14.05
2022-09-15T05:58:57.878Z,14.05
2022-09-15T05:59:29.215Z,14.05
2022-09-15T06:00:00.559Z,14.07
2022-09-15T06:00:31.904Z,14.06
2022-09-15T06:01:08.845Z,14.07
2022-09-15T06:01:40.355Z,14.08
2022-09-15T06:02:11.925Z,14.08
2022-09-15T06:02:43.341Z,14.07
2022-09-15T06:03:16.594Z,14.08
2022-09-15T06:03:49.168Z,14.08
2022-09-15T06:04:20.464Z,14.09
2022-09-15T06:04:51.795Z,14.09
2022-09-15T06:05:23.112Z,14.10
2022-09-15T06:06:02.285Z,14.11
2022-09-15T06:06:33.709Z,14.11
2022-09-15T06:07:05.036Z,14.11
2022-09-15T06:07:36.416Z,14.12
2022-09-15T06:08:08.015Z,14.13
2022-09-15T06:08:48.294Z,14.16
2022-09-15T06:09:20.042Z,14.16
2022-09-15T06:09:51.538Z,14.18
2022-09-15T06:10:24.876Z,14.17
2022-09-15T06:11:01.123Z,14.18
2022-09-15T06:11:33.730Z,14.19
2022-09-15T06:12:05.685Z,14.21
2022-09-15T06:12:36.978Z,14.21
2022-09-15T06:13:08.499Z,14.23
2022-09-15T06:13:40.136Z,14.23
2022-09-15T06:14:13.284Z,14.22
2022-09-15T06:14:45.819Z,14.23
2022-09-15T06:15:17.141Z,14.27
2022-09-15T06:15:48.460Z,14.27
2022-09-15T06:16:22.546Z,14.27
2022-09-15T06:16:53.957Z,14.27
2022-09-15T06:17:25.247Z,14.27
2022-09-15T06:17:56.573Z,14.28
2022-09-15T06:18:28.078Z,14.29
2022-09-15T06:19:00.928Z,14.29
2022-09-15T06:19:33.515Z,14.31
2022-09-15T06:20:07.030Z,14.30
2022-09-15T06:20:38.335Z,14.30
2022-09-15T06:21:13.322Z,14.31
2022-09-15T06:21:44.636Z,14.32
2022-09-15T06:22:15.924Z,14.32
2022-09-15T06:22:47.277Z,14.32
2022-09-15T06:23:18.552Z,14.30
2022-09-15T06:24:00.858Z,14.31
2022-09-15T06:24:32.187Z,14.30
2022-09-15T06:25:04.008Z,14.32
2022-09-15T06:25:35.336Z,14.30
2022-09-15T06:26:18.765Z,14.32
2022-09-15T06:26:50.252Z,14.32
2022-09-15T06:27:22.328Z,14.32
2022-09-15T06:27:54.199Z,14.33
2022-09-15T06:28:26.073Z,14.33
2022-09-15T06:29:00.311Z,14.33
2022-09-15T06:29:32.364Z,14.33
2022-09-15T06:30:04.382Z,14.34
2022-09-15T06:30:39.401Z,14.36
2022-09-15T06:31:14.447Z,14.35
2022-09-15T06:31:45.911Z,14.36
2022-09-15T06:32:17.743Z,14.36
2022-09-15T06:32:49.308Z,14.36
2022-09-15T06:33:20.606Z,14.38
2022-09-15T06:33:55.723Z,14.40
2022-09-15T06:34:27.012Z,14.39
2022-09-15T06:34:58.349Z,14.39
2022-09-15T06:35:29.640Z,14.40
2022-09-15T06:36:02.608Z,14.39
2022-09-15T06:36:36.161Z,14.40
2022-09-15T06:37:08.115Z,14.39
2022-09-15T06:37:39.407Z,14.40
2022-09-15T06:38:11.480Z,14.40
2022-09-15T06:38:43.953Z,14.42
2022-09-15T06:39:15.281Z,14.39
2022-09-15T06:39:46.584Z,14.42
2022-09-15T06:40:17.977Z,14.43
2022-09-15T06:40:59.256Z,14.42
2022-09-15T06:41:47.116Z,14.43
2022-09-15T06:42:22.264Z,14.41
2022-09-15T06:42:57.267Z,14.40
2022-09-15T06:43:31.020Z,14.43
2022-09-15T06:44:02.570Z,14.41
2022-09-15T06:44:33.855Z,14.42
2022-09-15T06:45:05.444Z,14.43
2022-09-15T06:45:36.955Z,14.45
2022-09-15T06:46:11.048Z,14.45
2022-09-15T06:46:42.689Z,14.45
2022-09-15T06:47:16.688Z,14.44
2022-09-15T06:47:58.268Z,14.47
2022-09-15T06:48:40.275Z,14.48
2022-09-15T06:49:11.686Z,14.48
2022-09-15T06:49:42.996Z,14.49
2022-09-15T06:50:14.395Z,14.49
2022-09-15T06:50:53.459Z,14.52
2022-09-15T06:51:28.215Z,14.55
2022-09-15T06:52:02.367Z,14.52
2022-09-15T06:52:33.649Z,14.57
2022-09-15T06:53:04.957Z,14.59
2022-09-15T06:53:40.937Z,14.59
2022-09-15T06:54:12.558Z,14.61
2022-09-15T06:54:44.024Z,14.63
2022-09-15T06:55:15.657Z,14.64
2022-09-15T06:55:47.017Z,14.66
2022-09-15T06:56:21.237Z,14.67
2022-09-15T06:56:52.562Z,14.67
2022-09-15T06:57:23.895Z,14.68
2022-09-15T06:57:55.273Z,14.70
2022-09-15T06:58:27.362Z,14.71
2022-09-15T06:58:59.976Z,14.75
2022-09-15T06:59:34.744Z,14.77
2022-09-15T07:00:07.512Z,14.80
2022-09-15T07:00:38.931Z,14.81
2022-09-15T07:01:19.353Z,14.83
2022-09-15T07:01:57.520Z,14.88
2022-09-15T07:02:30.282Z,14.90
2022-09-15T07:03:01.836Z,14.93
2022-09-15T07:03:33.300Z,14.94
2022-09-15T07:04:06.528Z,14.97
2022-09-15T07:04:37.875Z,14.98
2022-09-15T07:05:10.555Z,15.01
2022-09-15T07:05:44.614Z,15.04
2022-09-15T07:06:16.276Z,15.07
2022-09-15T07:06:48.044Z,15.10
2022-09-15T07:07:19.356Z,15.14
2022-09-15T07:07:50.852Z,15.15
2022-09-15T07:08:22.155Z,15.17
2022-09-15T07:08:53.895Z,15.19
2022-09-15T07:09:25.224Z,15.20
2022-09-15T07:09:56.505Z,15.19
2022-09-15T07:10:27.784Z,15.19
2022-09-15T07:10:59.264Z,15.19
2022-09-15T07:11:31.944Z,15.20
2022-09-15T07:12:03.457Z,15.20
2022-09-15T07:12:34.788Z,15.19
2022-09-15T07:13:06.096Z,15.18
2022-09-15T07:13:37.428Z,15.18
2022-09-15T07:14:08.923Z,15.18
2022-09-15T07:14:40.237Z,15.18
2022-09-15T07:15:11.841Z,15.17
2022-09-15T07:15:53.999Z,15.16
2022-09-15T07:16:25.755Z,15.17
2022-09-15T07:16:57.200Z,15.16
2022-09-15T07:17:29.021Z,15.17
2022-09-15T07:18:00.300Z,15.15
2022-09-15T07:18:32.589Z,15.14
2022-09-15T07:19:05.734Z,15.13
2022-09-15T07:19:38.462Z,15.11
2022-09-15T07:20:09.804Z,15.11
2022-09-15T07:20:41.819Z,15.10